sensor_id;sensor_type;location;lat;lon;timestamp;P1;durP1;ratioP1;P2;durP2;ratioP2
37885;SDS011;23726;52.520;13.434;2022-12-28T00:01:10;4.50;;;3.35;;
37885;SDS011;23726;52.520;13.434;2022-12-28T00:03:41;6.20;;;3.80;;
37885;SDS011;23726;52.520;13.434;2022-12-28T00:06:09;4.75;;;3.70;;
37885;SDS011;23726;52.520;13.434;2022-12-28T00:08:36;5.40;;;3.55;;
37885;SDS011;23726;52.520;13.434;2022-12-28T00:11:02;5.03;;;3.53;;
37885;SDS011;23726;52.520;13.434;2022-12-28T00:13:30;5.90;;;3.75;;
37885;SDS011;23726;52.520;13.434;2022-12-28T00:15:57;6.93;;;4.18;;
37885;SDS011;23726;52.520;13.434;2022-12-28T00:18:31;7.97;;;3.90;;
37885;SDS011;23726;52.520;13.434;2022-12-28T00:20:58;5.85;;;3.75;;
37885;SDS011;23726;52.520;13.434;2022-12-28T00:23:24;5.97;;;3.95;;
37885;SDS011;23726;52.520;13.434;2022-12-28T00:25:50;5.82;;;4.03;;
37885;SDS011;23726;52.520;13.434;2022-12-28T00:28:17;5.63;;;3.50;;
37885;SDS011;23726;52.520;13.434;2022-12-28T00:30:42;5.40;;;3.30;;
37885;SDS011;23726;52.520;13.434;2022-12-28T00:33:11;4.32;;;3.40;;
37885;SDS011;23726;52.520;13.434;2022-12-28T00:35:36;5.55;;;3.30;;
37885;SDS011;23726;52.520;13.434;2022-12-28T00:38:02;4.38;;;3.17;;
37885;SDS011;23726;52.520;13.434;2022-12-28T00:40:28;5.32;;;3.58;;
37885;SDS011;23726;52.520;13.434;2022-12-28T00:42:54;5.93;;;3.30;;
37885;SDS011;23726;52.520;13.434;2022-12-28T00:45:19;4.65;;;2.90;;
37885;SDS011;23726;52.520;13.434;2022-12-28T00:47:45;5.68;;;3.30;;
37885;SDS011;23726;52.520;13.434;2022-12-28T00:50:11;4.18;;;2.97;;
37885;SDS011;23726;52.520;13.434;2022-12-28T00:52:36;5.88;;;3.30;;
37885;SDS011;23726;52.520;13.434;2022-12-28T00:55:03;3.85;;;3.30;;
37885;SDS011;23726;52.520;13.434;2022-12-28T00:57:32;4.35;;;3.20;;
37885;SDS011;23726;52.520;13.434;2022-12-28T00:59:57;4.55;;;2.90;;
37885;SDS011;23726;52.520;13.434;2022-12-28T01:02:23;4.07;;;3.10;;
37885;SDS011;23726;52.520;13.434;2022-12-28T01:04:49;7.40;;;2.83;;
37885;SDS011;23726;52.520;13.434;2022-12-28T01:07:14;5.50;;;3.00;;
37885;SDS011;23726;52.520;13.434;2022-12-28T01:09:40;4.95;;;2.92;;
37885;SDS011;23726;52.520;13.434;2022-12-28T01:12:07;5.65;;;3.20;;
37885;SDS011;23726;52.520;13.434;2022-12-28T01:14:34;6.28;;;3.05;;
37885;SDS011;23726;52.520;13.434;2022-12-28T01:16:59;4.30;;;2.95;;
37885;SDS011;23726;52.520;13.434;2022-12-28T01:19:26;4.10;;;3.10;;
37885;SDS011;23726;52.520;13.434;2022-12-28T01:21:54;7.07;;;3.17;;
37885;SDS011;23726;52.520;13.434;2022-12-28T01:24:21;4.07;;;2.95;;
37885;SDS011;23726;52.520;13.434;2022-12-28T01:26:47;6.25;;;3.05;;
37885;SDS011;23726;52.520;13.434;2022-12-28T01:29:14;4.28;;;3.13;;
37885;SDS011;23726;52.520;13.434;2022-12-28T01:31:41;4.63;;;2.65;;
37885;SDS011;23726;52.520;13.434;2022-12-28T01:34:06;9.88;;;3.00;;
37885;SDS011;23726;52.520;13.434;2022-12-28T01:36:32;4.75;;;3.00;;
37885;SDS011;23726;52.520;13.434;2022-12-28T01:39:02;3.63;;;2.67;;
37885;SDS011;23726;52.520;13.434;2022-12-28T01:41:30;4.40;;;2.80;;
37885;SDS011;23726;52.520;13.434;2022-12-28T01:46:39;4.00;;;2.85;;
37885;SDS011;23726;52.520;13.434;2022-12-28T01:49:13;3.95;;;2.97;;
37885;SDS011;23726;52.520;13.434;2022-12-28T01:51:49;5.00;;;3.00;;
37885;SDS011;23726;52.520;13.434;2022-12-28T01:54:23;4.20;;;2.70;;
37885;SDS011;23726;52.520;13.434;2022-12-28T01:57:00;3.85;;;2.80;;
37885;SDS011;23726;52.520;13.434;2022-12-28T01:59:27;3.92;;;2.85;;
37885;SDS011;23726;52.520;13.434;2022-12-28T02:01:56;4.57;;;2.90;;
37885;SDS011;23726;52.520;13.434;2022-12-28T02:04:23;3.92;;;2.40;;
37885;SDS011;23726;52.520;13.434;2022-12-28T02:06:50;4.50;;;2.70;;
37885;SDS011;23726;52.520;13.434;2022-12-28T02:09:18;3.28;;;2.63;;
37885;SDS011;23726;52.520;13.434;2022-12-28T02:11:48;4.85;;;2.55;;
37885;SDS011;23726;52.520;13.434;2022-12-28T02:14:14;4.07;;;2.53;;
37885;SDS011;23726;52.520;13.434;2022-12-28T02:16:42;4.15;;;2.67;;
37885;SDS011;23726;52.520;13.434;2022-12-28T02:19:08;4.55;;;2.80;;
37885;SDS011;23726;52.520;13.434;2022-12-28T02:24:15;3.50;;;2.67;;
37885;SDS011;23726;52.520;13.434;2022-12-28T02:30:11;3.78;;;2.90;;
37885;SDS011;23726;52.520;13.434;2022-12-28T02:38:04;3.08;;;2.47;;
37885;SDS011;23726;52.520;13.434;2022-12-28T02:40:34;3.63;;;2.80;;
37885;SDS011;23726;52.520;13.434;2022-12-28T02:43:04;3.35;;;2.45;;
37885;SDS011;23726;52.520;13.434;2022-12-28T02:45:35;3.78;;;2.45;;
37885;SDS011;23726;52.520;13.434;2022-12-28T02:48:22;3.67;;;2.50;;
37885;SDS011;23726;52.520;13.434;2022-12-28T02:54:00;4.35;;;2.42;;
37885;SDS011;23726;52.520;13.434;2022-12-28T03:00:08;11.70;;;3.35;;
37885;SDS011;23726;52.520;13.434;2022-12-28T03:02:42;3.72;;;2.45;;
37885;SDS011;23726;52.520;13.434;2022-12-28T03:08:35;3.95;;;2.42;;
37885;SDS011;23726;52.520;13.434;2022-12-28T03:11:09;3.65;;;2.40;;
37885;SDS011;23726;52.520;13.434;2022-12-28T03:13:49;3.55;;;2.25;;
37885;SDS011;23726;52.520;13.434;2022-12-28T03:16:34;3.88;;;2.50;;
37885;SDS011;23726;52.520;13.434;2022-12-28T03:19:26;5.68;;;2.58;;
37885;SDS011;23726;52.520;13.434;2022-12-28T03:22:14;2.80;;;2.30;;
37885;SDS011;23726;52.520;13.434;2022-12-28T03:24:59;3.10;;;2.28;;
37885;SDS011;23726;52.520;13.434;2022-12-28T03:27:46;2.55;;;2.20;;
37885;SDS011;23726;52.520;13.434;2022-12-28T03:30:31;3.15;;;2.47;;
37885;SDS011;23726;52.520;13.434;2022-12-28T03:33:17;3.15;;;2.50;;
37885;SDS011;23726;52.520;13.434;2022-12-28T03:38:14;2.83;;;2.30;;
37885;SDS011;23726;52.520;13.434;2022-12-28T03:40:54;3.42;;;2.60;;
37885;SDS011;23726;52.520;13.434;2022-12-28T03:43:34;3.15;;;2.35;;
37885;SDS011;23726;52.520;13.434;2022-12-28T03:48:59;2.50;;;2.10;;
37885;SDS011;23726;52.520;13.434;2022-12-28T03:51:26;4.15;;;2.75;;
37885;SDS011;23726;52.520;13.434;2022-12-28T03:53:54;2.72;;;2.05;;
37885;SDS011;23726;52.520;13.434;2022-12-28T03:56:20;4.15;;;2.47;;
37885;SDS011;23726;52.520;13.434;2022-12-28T03:58:48;3.53;;;2.25;;
37885;SDS011;23726;52.520;13.434;2022-12-28T04:01:14;3.13;;;2.20;;
37885;SDS011;23726;52.520;13.434;2022-12-28T04:03:40;2.30;;;1.95;;
37885;SDS011;23726;52.520;13.434;2022-12-28T04:06:07;5.10;;;2.22;;
37885;SDS011;23726;52.520;13.434;2022-12-28T04:11:04;3.15;;;2.40;;
37885;SDS011;23726;52.520;13.434;2022-12-28T04:13:30;3.65;;;2.35;;
37885;SDS011;23726;52.520;13.434;2022-12-28T04:16:00;2.40;;;2.03;;
37885;SDS011;23726;52.520;13.434;2022-12-28T04:18:32;2.50;;;2.25;;
37885;SDS011;23726;52.520;13.434;2022-12-28T04:20:58;4.22;;;2.50;;
37885;SDS011;23726;52.520;13.434;2022-12-28T04:23:25;2.60;;;2.20;;
37885;SDS011;23726;52.520;13.434;2022-12-28T04:26:00;2.53;;;2.00;;
37885;SDS011;23726;52.520;13.434;2022-12-28T04:28:28;2.65;;;2.33;;
37885;SDS011;23726;52.520;13.434;2022-12-28T04:30:54;3.08;;;2.47;;
37885;SDS011;23726;52.520;13.434;2022-12-28T04:33:21;3.25;;;2.47;;
37885;SDS011;23726;52.520;13.434;2022-12-28T04:35:47;6.85;;;2.50;;
37885;SDS011;23726;52.520;13.434;2022-12-28T04:38:14;2.65;;;2.20;;
37885;SDS011;23726;52.520;13.434;2022-12-28T04:40:39;3.63;;;2.33;;
37885;SDS011;23726;52.520;13.434;2022-12-28T04:43:05;3.00;;;2.20;;
37885;SDS011;23726;52.520;13.434;2022-12-28T04:45:30;2.33;;;2.13;;
37885;SDS011;23726;52.520;13.434;2022-12-28T04:47:58;2.95;;;1.95;;
37885;SDS011;23726;52.520;13.434;2022-12-28T04:50:24;3.10;;;2.10;;
37885;SDS011;23726;52.520;13.434;2022-12-28T04:52:52;3.05;;;1.95;;
37885;SDS011;23726;52.520;13.434;2022-12-28T04:55:18;2.63;;;2.22;;
37885;SDS011;23726;52.520;13.434;2022-12-28T04:57:44;2.70;;;1.90;;
37885;SDS011;23726;52.520;13.434;2022-12-28T05:00:11;2.25;;;2.00;;
37885;SDS011;23726;52.520;13.434;2022-12-28T05:02:38;2.63;;;2.20;;
37885;SDS011;23726;52.520;13.434;2022-12-28T05:05:05;3.22;;;2.00;;
37885;SDS011;23726;52.520;13.434;2022-12-28T05:07:31;2.85;;;2.20;;
37885;SDS011;23726;52.520;13.434;2022-12-28T05:09:56;2.53;;;1.77;;
37885;SDS011;23726;52.520;13.434;2022-12-28T05:12:22;3.95;;;2.00;;
37885;SDS011;23726;52.520;13.434;2022-12-28T05:14:50;2.50;;;2.10;;
37885;SDS011;23726;52.520;13.434;2022-12-28T05:17:17;2.20;;;1.95;;
37885;SDS011;23726;52.520;13.434;2022-12-28T05:19:43;3.80;;;2.50;;
37885;SDS011;23726;52.520;13.434;2022-12-28T05:22:09;2.53;;;2.13;;
37885;SDS011;23726;52.520;13.434;2022-12-28T05:24:36;2.33;;;1.88;;
37885;SDS011;23726;52.520;13.434;2022-12-28T05:27:05;2.55;;;2.20;;
37885;SDS011;23726;52.520;13.434;2022-12-28T05:29:30;2.80;;;2.35;;
37885;SDS011;23726;52.520;13.434;2022-12-28T05:31:57;2.92;;;2.00;;
37885;SDS011;23726;52.520;13.434;2022-12-28T05:34:23;2.40;;;1.92;;
37885;SDS011;23726;52.520;13.434;2022-12-28T05:36:48;4.18;;;1.98;;
37885;SDS011;23726;52.520;13.434;2022-12-28T05:39:14;2.83;;;1.98;;
37885;SDS011;23726;52.520;13.434;2022-12-28T05:41:39;2.42;;;2.10;;
37885;SDS011;23726;52.520;13.434;2022-12-28T05:44:07;3.80;;;1.90;;
37885;SDS011;23726;52.520;13.434;2022-12-28T05:46:33;2.17;;;1.80;;
37885;SDS011;23726;52.520;13.434;2022-12-28T05:48:59;3.33;;;2.47;;
37885;SDS011;23726;52.520;13.434;2022-12-28T05:51:27;3.25;;;1.92;;
37885;SDS011;23726;52.520;13.434;2022-12-28T05:53:54;3.22;;;2.28;;
37885;SDS011;23726;52.520;13.434;2022-12-28T05:56:24;1.92;;;1.80;;
37885;SDS011;23726;52.520;13.434;2022-12-28T05:58:53;2.30;;;2.05;;
37885;SDS011;23726;52.520;13.434;2022-12-28T06:01:21;2.78;;;2.28;;
37885;SDS011;23726;52.520;13.434;2022-12-28T06:03:54;4.00;;;2.33;;
37885;SDS011;23726;52.520;13.434;2022-12-28T06:06:31;2.80;;;1.73;;
37885;SDS011;23726;52.520;13.434;2022-12-28T06:08:58;2.30;;;1.90;;
37885;SDS011;23726;52.520;13.434;2022-12-28T06:11:26;3.03;;;1.88;;
37885;SDS011;23726;52.520;13.434;2022-12-28T06:13:53;4.13;;;1.92;;
37885;SDS011;23726;52.520;13.434;2022-12-28T06:16:20;3.35;;;2.10;;
37885;SDS011;23726;52.520;13.434;2022-12-28T06:18:48;2.15;;;1.85;;
37885;SDS011;23726;52.520;13.434;2022-12-28T06:21:19;4.35;;;1.80;;
37885;SDS011;23726;52.520;13.434;2022-12-28T06:23:55;2.00;;;1.80;;
37885;SDS011;23726;52.520;13.434;2022-12-28T06:26:23;3.13;;;2.10;;
37885;SDS011;23726;52.520;13.434;2022-12-28T06:28:49;2.83;;;1.70;;
37885;SDS011;23726;52.520;13.434;2022-12-28T06:31:16;4.28;;;1.88;;
37885;SDS011;23726;52.520;13.434;2022-12-28T06:33:47;2.92;;;1.75;;
37885;SDS011;23726;52.520;13.434;2022-12-28T06:36:19;3.80;;;1.92;;
37885;SDS011;23726;52.520;13.434;2022-12-28T06:38:47;2.92;;;1.85;;
37885;SDS011;23726;52.520;13.434;2022-12-28T06:41:14;2.38;;;2.03;;
37885;SDS011;23726;52.520;13.434;2022-12-28T06:43:42;2.72;;;1.85;;
37885;SDS011;23726;52.520;13.434;2022-12-28T06:46:08;3.15;;;1.90;;
37885;SDS011;23726;52.520;13.434;2022-12-28T06:48:34;2.58;;;1.73;;
37885;SDS011;23726;52.520;13.434;2022-12-28T06:51:02;2.05;;;1.67;;
37885;SDS011;23726;52.520;13.434;2022-12-28T06:53:30;3.17;;;1.80;;
37885;SDS011;23726;52.520;13.434;2022-12-28T06:56:01;2.20;;;1.98;;
37885;SDS011;23726;52.520;13.434;2022-12-28T06:58:32;2.45;;;2.00;;
37885;SDS011;23726;52.520;13.434;2022-12-28T07:03:40;2.20;;;1.77;;
37885;SDS011;23726;52.520;13.434;2022-12-28T07:06:07;2.40;;;1.85;;
37885;SDS011;23726;52.520;13.434;2022-12-28T07:08:33;3.13;;;2.03;;
37885;SDS011;23726;52.520;13.434;2022-12-28T07:11:10;2.25;;;1.85;;
37885;SDS011;23726;52.520;13.434;2022-12-28T07:13:38;2.53;;;1.98;;
37885;SDS011;23726;52.520;13.434;2022-12-28T07:16:05;2.15;;;1.60;;
37885;SDS011;23726;52.520;13.434;2022-12-28T07:18:38;2.83;;;1.70;;
37885;SDS011;23726;52.520;13.434;2022-12-28T07:21:06;2.15;;;1.60;;
37885;SDS011;23726;52.520;13.434;2022-12-28T07:23:37;2.45;;;1.55;;
37885;SDS011;23726;52.520;13.434;2022-12-28T07:26:06;4.10;;;1.98;;
37885;SDS011;23726;52.520;13.434;2022-12-28T07:28:35;2.80;;;1.80;;
37885;SDS011;23726;52.520;13.434;2022-12-28T07:31:09;2.17;;;1.95;;
37885;SDS011;23726;52.520;13.434;2022-12-28T07:33:50;3.65;;;2.03;;
37885;SDS011;23726;52.520;13.434;2022-12-28T07:36:18;2.35;;;1.88;;
37885;SDS011;23726;52.520;13.434;2022-12-28T07:38:44;2.50;;;1.55;;
37885;SDS011;23726;52.520;13.434;2022-12-28T07:41:14;1.98;;;1.65;;
37885;SDS011;23726;52.520;13.434;2022-12-28T07:43:41;4.05;;;2.20;;
37885;SDS011;23726;52.520;13.434;2022-12-28T07:46:08;4.22;;;2.08;;
37885;SDS011;23726;52.520;13.434;2022-12-28T07:48:43;2.00;;;1.77;;
37885;SDS011;23726;52.520;13.434;2022-12-28T07:51:15;2.50;;;1.92;;
37885;SDS011;23726;52.520;13.434;2022-12-28T07:53:51;3.28;;;2.00;;
37885;SDS011;23726;52.520;13.434;2022-12-28T07:56:19;3.13;;;1.80;;
37885;SDS011;23726;52.520;13.434;2022-12-28T07:58:55;3.30;;;1.70;;
37885;SDS011;23726;52.520;13.434;2022-12-28T08:01:24;2.15;;;1.90;;
37885;SDS011;23726;52.520;13.434;2022-12-28T08:03:52;2.45;;;1.80;;
37885;SDS011;23726;52.520;13.434;2022-12-28T08:06:21;2.70;;;2.03;;
37885;SDS011;23726;52.520;13.434;2022-12-28T08:08:49;4.30;;;1.95;;
37885;SDS011;23726;52.520;13.434;2022-12-28T08:11:17;4.35;;;1.85;;
37885;SDS011;23726;52.520;13.434;2022-12-28T08:13:48;2.35;;;1.67;;
37885;SDS011;23726;52.520;13.434;2022-12-28T08:16:16;3.50;;;1.70;;
37885;SDS011;23726;52.520;13.434;2022-12-28T08:18:44;2.42;;;1.95;;
37885;SDS011;23726;52.520;13.434;2022-12-28T08:21:12;2.08;;;1.60;;
37885;SDS011;23726;52.520;13.434;2022-12-28T08:23:40;2.50;;;1.67;;
37885;SDS011;23726;52.520;13.434;2022-12-28T08:26:07;2.40;;;1.95;;
37885;SDS011;23726;52.520;13.434;2022-12-28T08:28:38;4.80;;;2.05;;
37885;SDS011;23726;52.520;13.434;2022-12-28T08:31:09;2.38;;;1.67;;
37885;SDS011;23726;52.520;13.434;2022-12-28T08:33:58;2.90;;;1.80;;
37885;SDS011;23726;52.520;13.434;2022-12-28T08:36:25;1.98;;;1.70;;
37885;SDS011;23726;52.520;13.434;2022-12-28T08:38:52;1.90;;;1.60;;
37885;SDS011;23726;52.520;13.434;2022-12-28T08:41:19;3.22;;;1.90;;
37885;SDS011;23726;52.520;13.434;2022-12-28T08:43:46;2.03;;;1.77;;
37885;SDS011;23726;52.520;13.434;2022-12-28T08:46:13;2.35;;;1.80;;
37885;SDS011;23726;52.520;13.434;2022-12-28T08:48:42;2.47;;;1.75;;
37885;SDS011;23726;52.520;13.434;2022-12-28T08:51:09;4.03;;;1.90;;
37885;SDS011;23726;52.520;13.434;2022-12-28T08:53:37;2.28;;;1.60;;
37885;SDS011;23726;52.520;13.434;2022-12-28T08:56:03;4.22;;;1.95;;
37885;SDS011;23726;52.520;13.434;2022-12-28T08:58:31;2.88;;;2.03;;
37885;SDS011;23726;52.520;13.434;2022-12-28T09:01:03;2.05;;;1.67;;
37885;SDS011;23726;52.520;13.434;2022-12-28T09:03:38;2.10;;;1.63;;
37885;SDS011;23726;52.520;13.434;2022-12-28T09:06:06;2.10;;;1.63;;
37885;SDS011;23726;52.520;13.434;2022-12-28T09:08:34;2.10;;;1.58;;
37885;SDS011;23726;52.520;13.434;2022-12-28T09:11:03;1.88;;;1.55;;
37885;SDS011;23726;52.520;13.434;2022-12-28T09:13:31;2.95;;;1.90;;
37885;SDS011;23726;52.520;13.434;2022-12-28T09:15:59;2.75;;;1.60;;
37885;SDS011;23726;52.520;13.434;2022-12-28T09:18:32;2.75;;;1.70;;
37885;SDS011;23726;52.520;13.434;2022-12-28T09:21:05;2.28;;;1.50;;
37885;SDS011;23726;52.520;13.434;2022-12-28T09:23:35;2.55;;;1.70;;
37885;SDS011;23726;52.520;13.434;2022-12-28T09:26:05;3.08;;;2.13;;
37885;SDS011;23726;52.520;13.434;2022-12-28T09:28:47;2.05;;;1.85;;
37885;SDS011;23726;52.520;13.434;2022-12-28T09:31:21;2.30;;;1.75;;
37885;SDS011;23726;52.520;13.434;2022-12-28T09:33:48;2.55;;;1.70;;
37885;SDS011;23726;52.520;13.434;2022-12-28T09:36:25;2.22;;;1.80;;
37885;SDS011;23726;52.520;13.434;2022-12-28T09:38:59;2.70;;;1.67;;
37885;SDS011;23726;52.520;13.434;2022-12-28T09:41:35;2.38;;;1.88;;
37885;SDS011;23726;52.520;13.434;2022-12-28T09:55:40;2.28;;;1.55;;
37885;SDS011;23726;52.520;13.434;2022-12-28T09:58:13;3.53;;;1.80;;
37885;SDS011;23726;52.520;13.434;2022-12-28T10:03:15;2.13;;;1.60;;
37885;SDS011;23726;52.520;13.434;2022-12-28T10:05:51;2.25;;;1.60;;
37885;SDS011;23726;52.520;13.434;2022-12-28T10:08:19;2.20;;;1.98;;
37885;SDS011;23726;52.520;13.434;2022-12-28T10:10:50;1.77;;;1.33;;
37885;SDS011;23726;52.520;13.434;2022-12-28T10:13:21;3.53;;;1.73;;
37885;SDS011;23726;52.520;13.434;2022-12-28T10:15:50;1.73;;;1.60;;
37885;SDS011;23726;52.520;13.434;2022-12-28T10:18:20;2.28;;;1.67;;
37885;SDS011;23726;52.520;13.434;2022-12-28T10:20:48;2.33;;;1.75;;
37885;SDS011;23726;52.520;13.434;2022-12-28T10:23:15;1.65;;;1.55;;
37885;SDS011;23726;52.520;13.434;2022-12-28T10:25:45;2.17;;;1.65;;
37885;SDS011;23726;52.520;13.434;2022-12-28T10:28:12;2.65;;;1.52;;
37885;SDS011;23726;52.520;13.434;2022-12-28T10:30:44;1.95;;;1.58;;
37885;SDS011;23726;52.520;13.434;2022-12-28T10:33:15;1.88;;;1.67;;
37885;SDS011;23726;52.520;13.434;2022-12-28T10:35:49;4.18;;;1.80;;
37885;SDS011;23726;52.520;13.434;2022-12-28T10:38:20;2.35;;;1.73;;
37885;SDS011;23726;52.520;13.434;2022-12-28T10:40:58;1.98;;;1.80;;
37885;SDS011;23726;52.520;13.434;2022-12-28T10:43:34;1.92;;;1.70;;
37885;SDS011;23726;52.520;13.434;2022-12-28T10:46:12;3.92;;;1.85;;
37885;SDS011;23726;52.520;13.434;2022-12-28T10:48:49;2.22;;;1.70;;
37885;SDS011;23726;52.520;13.434;2022-12-28T10:51:19;2.53;;;1.77;;
37885;SDS011;23726;52.520;13.434;2022-12-28T10:53:48;3.45;;;1.60;;
37885;SDS011;23726;52.520;13.434;2022-12-28T10:56:19;2.53;;;1.70;;
37885;SDS011;23726;52.520;13.434;2022-12-28T10:58:45;2.83;;;1.80;;
37885;SDS011;23726;52.520;13.434;2022-12-28T11:03:42;4.28;;;1.75;;
37885;SDS011;23726;52.520;13.434;2022-12-28T11:06:18;2.35;;;1.85;;
37885;SDS011;23726;52.520;13.434;2022-12-28T11:08:58;2.03;;;1.83;;
37885;SDS011;23726;52.520;13.434;2022-12-28T11:11:25;2.20;;;1.70;;
37885;SDS011;23726;52.520;13.434;2022-12-28T11:13:53;1.85;;;1.42;;
37885;SDS011;23726;52.520;13.434;2022-12-28T11:16:23;2.75;;;1.40;;
37885;SDS011;23726;52.520;13.434;2022-12-28T11:18:49;2.83;;;1.95;;
37885;SDS011;23726;52.520;13.434;2022-12-28T11:21:19;2.83;;;1.80;;
37885;SDS011;23726;52.520;13.434;2022-12-28T11:23:53;2.40;;;1.90;;
37885;SDS011;23726;52.520;13.434;2022-12-28T11:26:19;1.83;;;1.60;;
37885;SDS011;23726;52.520;13.434;2022-12-28T11:28:46;2.47;;;1.70;;
37885;SDS011;23726;52.520;13.434;2022-12-28T11:31:20;2.33;;;1.58;;
37885;SDS011;23726;52.520;13.434;2022-12-28T11:34:12;2.00;;;1.80;;
37885;SDS011;23726;52.520;13.434;2022-12-28T11:36:42;2.08;;;1.88;;
37885;SDS011;23726;52.520;13.434;2022-12-28T11:41:49;2.47;;;1.88;;
37885;SDS011;23726;52.520;13.434;2022-12-28T11:44:19;2.15;;;1.50;;
37885;SDS011;23726;52.520;13.434;2022-12-28T11:49:41;2.42;;;1.83;;
37885;SDS011;23726;52.520;13.434;2022-12-28T11:57:32;4.38;;;1.90;;
37885;SDS011;23726;52.520;13.434;2022-12-28T12:02:54;2.40;;;1.92;;
37885;SDS011;23726;52.520;13.434;2022-12-28T12:10:41;2.78;;;1.50;;
37885;SDS011;23726;52.520;13.434;2022-12-28T12:15:53;2.03;;;1.60;;
37885;SDS011;23726;52.520;13.434;2022-12-28T12:18:23;2.72;;;1.70;;
37885;SDS011;23726;52.520;13.434;2022-12-28T12:31:40;1.63;;;1.52;;
37885;SDS011;23726;52.520;13.434;2022-12-28T12:42:33;2.13;;;1.80;;
37885;SDS011;23726;52.520;13.434;2022-12-28T13:03:48;2.08;;;1.75;;
37885;SDS011;23726;52.520;13.434;2022-12-28T13:06:34;2.35;;;1.65;;
37885;SDS011;23726;52.520;13.434;2022-12-28T13:09:04;2.35;;;1.55;;
37885;SDS011;23726;52.520;13.434;2022-12-28T13:11:35;2.85;;;1.73;;
37885;SDS011;23726;52.520;13.434;2022-12-28T13:14:02;2.40;;;1.50;;
37885;SDS011;23726;52.520;13.434;2022-12-28T13:16:29;2.03;;;1.77;;
37885;SDS011;23726;52.520;13.434;2022-12-28T13:18:59;1.70;;;1.60;;
37885;SDS011;23726;52.520;13.434;2022-12-28T13:21:26;2.00;;;1.58;;
37885;SDS011;23726;52.520;13.434;2022-12-28T13:26:48;2.00;;;1.55;;
37885;SDS011;23726;52.520;13.434;2022-12-28T13:29:19;3.25;;;1.83;;
37885;SDS011;23726;52.520;13.434;2022-12-28T13:31:47;2.10;;;1.70;;
37885;SDS011;23726;52.520;13.434;2022-12-28T13:34:29;1.58;;;1.48;;
37885;SDS011;23726;52.520;13.434;2022-12-28T13:37:00;2.00;;;1.63;;
37885;SDS011;23726;52.520;13.434;2022-12-28T13:39:28;2.30;;;1.90;;
37885;SDS011;23726;52.520;13.434;2022-12-28T13:41:56;1.90;;;1.70;;
37885;SDS011;23726;52.520;13.434;2022-12-28T13:47:00;2.22;;;1.92;;
37885;SDS011;23726;52.520;13.434;2022-12-28T13:49:34;1.80;;;1.50;;
37885;SDS011;23726;52.520;13.434;2022-12-28T13:52:07;1.70;;;1.60;;
37885;SDS011;23726;52.520;13.434;2022-12-28T13:54:38;1.55;;;1.33;;
37885;SDS011;23726;52.520;13.434;2022-12-28T13:57:07;1.70;;;1.60;;
37885;SDS011;23726;52.520;13.434;2022-12-28T13:59:36;2.58;;;1.80;;
37885;SDS011;23726;52.520;13.434;2022-12-28T14:02:02;1.83;;;1.67;;
37885;SDS011;23726;52.520;13.434;2022-12-28T14:04:28;1.65;;;1.55;;
37885;SDS011;23726;52.520;13.434;2022-12-28T14:06:55;4.93;;;1.90;;
37885;SDS011;23726;52.520;13.434;2022-12-28T14:09:21;1.95;;;1.70;;
37885;SDS011;23726;52.520;13.434;2022-12-28T14:11:47;5.38;;;2.17;;
37885;SDS011;23726;52.520;13.434;2022-12-28T14:14:13;2.90;;;1.67;;
37885;SDS011;23726;52.520;13.434;2022-12-28T14:16:40;2.85;;;1.80;;
37885;SDS011;23726;52.520;13.434;2022-12-28T14:19:06;4.10;;;2.05;;
37885;SDS011;23726;52.520;13.434;2022-12-28T14:24:16;4.20;;;2.00;;
37885;SDS011;23726;52.520;13.434;2022-12-28T14:27:02;4.10;;;1.98;;
37885;SDS011;23726;52.520;13.434;2022-12-28T14:29:34;3.47;;;1.83;;
37885;SDS011;23726;52.520;13.434;2022-12-28T14:32:01;2.60;;;1.80;;
37885;SDS011;23726;52.520;13.434;2022-12-28T14:34:29;5.20;;;1.92;;
37885;SDS011;23726;52.520;13.434;2022-12-28T14:36:59;3.45;;;2.10;;
37885;SDS011;23726;52.520;13.434;2022-12-28T14:42:03;2.42;;;1.80;;
37885;SDS011;23726;52.520;13.434;2022-12-28T14:46:57;3.53;;;1.75;;
37885;SDS011;23726;52.520;13.434;2022-12-28T14:54:53;3.65;;;1.80;;
37885;SDS011;23726;52.520;13.434;2022-12-28T14:59:49;1.85;;;1.70;;
37885;SDS011;23726;52.520;13.434;2022-12-28T15:04:59;3.17;;;1.98;;
37885;SDS011;23726;52.520;13.434;2022-12-28T15:07:32;1.97;;;1.77;;
37885;SDS011;23726;52.520;13.434;2022-12-28T15:09:57;3.13;;;1.77;;
37885;SDS011;23726;52.520;13.434;2022-12-28T15:12:23;2.38;;;1.73;;
37885;SDS011;23726;52.520;13.434;2022-12-28T15:14:49;2.33;;;1.60;;
37885;SDS011;23726;52.520;13.434;2022-12-28T15:17:17;3.33;;;2.10;;
37885;SDS011;23726;52.520;13.434;2022-12-28T15:19:43;2.17;;;1.60;;
37885;SDS011;23726;52.520;13.434;2022-12-28T15:22:10;2.60;;;1.80;;
37885;SDS011;23726;52.520;13.434;2022-12-28T15:24:36;2.15;;;1.95;;
37885;SDS011;23726;52.520;13.434;2022-12-28T15:27:04;2.45;;;1.80;;
37885;SDS011;23726;52.520;13.434;2022-12-28T15:29:30;3.33;;;1.80;;
37885;SDS011;23726;52.520;13.434;2022-12-28T15:31:56;2.90;;;1.92;;
37885;SDS011;23726;52.520;13.434;2022-12-28T15:34:24;3.42;;;1.90;;
37885;SDS011;23726;52.520;13.434;2022-12-28T15:36:51;2.67;;;2.10;;
37885;SDS011;23726;52.520;13.434;2022-12-28T15:39:16;4.18;;;2.20;;
37885;SDS011;23726;52.520;13.434;2022-12-28T15:41:43;4.30;;;1.73;;
37885;SDS011;23726;52.520;13.434;2022-12-28T15:44:12;4.28;;;1.92;;
37885;SDS011;23726;52.520;13.434;2022-12-28T15:46:38;6.43;;;2.00;;
37885;SDS011;23726;52.520;13.434;2022-12-28T15:49:04;3.50;;;1.80;;
37885;SDS011;23726;52.520;13.434;2022-12-28T15:51:31;2.28;;;1.60;;
37885;SDS011;23726;52.520;13.434;2022-12-28T15:53:56;4.57;;;2.33;;
37885;SDS011;23726;52.520;13.434;2022-12-28T15:56:24;3.72;;;2.40;;
37885;SDS011;23726;52.520;13.434;2022-12-28T15:58:53;5.28;;;3.50;;
37885;SDS011;23726;52.520;13.434;2022-12-28T16:01:21;7.13;;;3.63;;
37885;SDS011;23726;52.520;13.434;2022-12-28T16:03:48;6.20;;;3.92;;
37885;SDS011;23726;52.520;13.434;2022-12-28T16:06:15;7.53;;;3.55;;
37885;SDS011;23726;52.520;13.434;2022-12-28T16:08:41;4.28;;;3.20;;
37885;SDS011;23726;52.520;13.434;2022-12-28T16:11:11;6.28;;;3.30;;
37885;SDS011;23726;52.520;13.434;2022-12-28T16:13:38;4.35;;;2.47;;
37885;SDS011;23726;52.520;13.434;2022-12-28T16:16:05;6.10;;;4.03;;
37885;SDS011;23726;52.520;13.434;2022-12-28T16:18:38;4.35;;;3.08;;
37885;SDS011;23726;52.520;13.434;2022-12-28T16:21:05;4.40;;;3.05;;
37885;SDS011;23726;52.520;13.434;2022-12-28T16:23:37;4.60;;;2.95;;
37885;SDS011;23726;52.520;13.434;2022-12-28T16:26:05;5.93;;;3.13;;
37885;SDS011;23726;52.520;13.434;2022-12-28T16:28:32;4.82;;;2.83;;
37885;SDS011;23726;52.520;13.434;2022-12-28T16:30:58;4.35;;;2.97;;
37885;SDS011;23726;52.520;13.434;2022-12-28T16:33:24;6.22;;;3.30;;
37885;SDS011;23726;52.520;13.434;2022-12-28T16:35:51;4.40;;;2.75;;
37885;SDS011;23726;52.520;13.434;2022-12-28T16:38:18;3.50;;;2.70;;
37885;SDS011;23726;52.520;13.434;2022-12-28T16:40:45;4.10;;;2.60;;
37885;SDS011;23726;52.520;13.434;2022-12-28T16:43:14;5.85;;;2.90;;
37885;SDS011;23726;52.520;13.434;2022-12-28T16:45:42;4.63;;;2.75;;
37885;SDS011;23726;52.520;13.434;2022-12-28T16:48:09;4.18;;;3.05;;
37885;SDS011;23726;52.520;13.434;2022-12-28T16:50:37;5.90;;;2.72;;
37885;SDS011;23726;52.520;13.434;2022-12-28T16:53:03;3.88;;;2.80;;
37885;SDS011;23726;52.520;13.434;2022-12-28T16:55:31;4.22;;;3.05;;
37885;SDS011;23726;52.520;13.434;2022-12-28T16:58:03;2.85;;;2.10;;
37885;SDS011;23726;52.520;13.434;2022-12-28T17:00:29;3.17;;;2.25;;